sensor_id;sensor_type;location;lat;lon;timestamp;pressure;altitude;pressure_sealevel;temperature
73894;BMP280;62699;50.534;12.784;2023-05-02T00:00:30;96220.94;;;11.17
73894;BMP280;62699;50.534;12.784;2023-05-02T00:05:31;96220.22;;;11.11
73894;BMP280;62699;50.534;12.784;2023-05-02T00:10:31;96223.25;;;10.96
73894;BMP280;62699;50.534;12.784;2023-05-02T00:15:32;96230.16;;;10.80
73894;BMP280;62699;50.534;12.784;2023-05-02T00:20:33;96230.44;;;10.60
73894;BMP280;62699;50.534;12.784;2023-05-02T00:25:33;96226.31;;;10.42
73894;BMP280;62699;50.534;12.784;2023-05-02T00:30:33;96234.22;;;10.24
73894;BMP280;62699;50.534;12.784;2023-05-02T00:35:34;96233.97;;;10.05
73894;BMP280;62699;50.534;12.784;2023-05-02T00:40:44;96232.75;;;9.89
73894;BMP280;62699;50.534;12.784;2023-05-02T00:45:45;96229.56;;;9.74
73894;BMP280;62699;50.534;12.784;2023-05-02T00:50:45;96229.56;;;9.63
73894;BMP280;62699;50.534;12.784;2023-05-02T00:55:48;96238.28;;;9.47
73894;BMP280;62699;50.534;12.784;2023-05-02T01:01:10;96238.28;;;9.47
73894;BMP280;62699;50.534;12.784;2023-05-02T01:12:04;96235.47;;;8.97
73894;BMP280;62699;50.534;12.784;2023-05-02T01:17:08;96243.47;;;8.86
73894;BMP280;62699;50.534;12.784;2023-05-02T01:22:10;96239.28;;;8.73
73894;BMP280;62699;50.534;12.784;2023-05-02T01:32:51;96244.22;;;8.44
73894;BMP280;62699;50.534;12.784;2023-05-02T01:37:53;96245.88;;;8.35
73894;BMP280;62699;50.534;12.784;2023-05-02T01:42:55;96258.53;;;8.29
73894;BMP280;62699;50.534;12.784;2023-05-02T01:47:59;96250.63;;;8.20
73894;BMP280;62699;50.534;12.784;2023-05-02T01:53:02;96254.97;;;8.12
73894;BMP280;62699;50.534;12.784;2023-05-02T01:58:03;96256.59;;;8.04
73894;BMP280;62699;50.534;12.784;2023-05-02T02:03:06;96264.41;;;8.02
73894;BMP280;62699;50.534;12.784;2023-05-02T02:08:07;96270.22;;;8.01
73894;BMP280;62699;50.534;12.784;2023-05-02T02:13:18;96277.28;;;7.98
73894;BMP280;62699;50.534;12.784;2023-05-02T02:18:24;96274.31;;;7.96
73894;BMP280;62699;50.534;12.784;2023-05-02T02:23:27;96276.75;;;7.94
73894;BMP280;62699;50.534;12.784;2023-05-02T02:28:29;96290.81;;;7.89
73894;BMP280;62699;50.534;12.784;2023-05-02T02:33:30;96292.97;;;7.85
73894;BMP280;62699;50.534;12.784;2023-05-02T02:38:38;96302.91;;;7.79
73894;BMP280;62699;50.534;12.784;2023-05-02T02:44:05;96305.06;;;7.75
73894;BMP280;62699;50.534;12.784;2023-05-02T02:54:32;96311.50;;;7.63
73894;BMP280;62699;50.534;12.784;2023-05-02T02:59:38;96320.50;;;7.60
73894;BMP280;62699;50.534;12.784;2023-05-02T03:04:40;96332.13;;;7.57
73894;BMP280;62699;50.534;12.784;2023-05-02T03:09:43;96326.47;;;7.49
73894;BMP280;62699;50.534;12.784;2023-05-02T03:14:44;96337.63;;;7.47
73894;BMP280;62699;50.534;12.784;2023-05-02T03:19:44;96336.13;;;7.41
73894;BMP280;62699;50.534;12.784;2023-05-02T03:24:44;96347.56;;;7.41
73894;BMP280;62699;50.534;12.784;2023-05-02T03:29:45;96355.31;;;7.39
73894;BMP280;62699;50.534;12.784;2023-05-02T03:34:45;96350.88;;;7.36
73894;BMP280;62699;50.534;12.784;2023-05-02T03:39:45;96355.69;;;7.32
73894;BMP280;62699;50.534;12.784;2023-05-02T03:44:46;96361.03;;;7.32
73894;BMP280;62699;50.534;12.784;2023-05-02T03:49:47;96367.38;;;7.29
73894;BMP280;62699;50.534;12.784;2023-05-02T03:54:49;96371.75;;;7.32
73894;BMP280;62699;50.534;12.784;2023-05-02T03:59:49;96377.09;;;7.32
73894;BMP280;62699;50.534;12.784;2023-05-02T04:04:49;96388.84;;;7.35
73894;BMP280;62699;50.534;12.784;2023-05-02T04:09:50;96399.66;;;7.40
73894;BMP280;62699;50.534;12.784;2023-05-02T04:14:51;96400.00;;;7.48
73894;BMP280;62699;50.534;12.784;2023-05-02T04:19:53;96398.31;;;7.50
73894;BMP280;62699;50.534;12.784;2023-05-02T04:24:53;96410.09;;;7.59
73894;BMP280;62699;50.534;12.784;2023-05-02T04:29:55;96401.31;;;7.78
73894;BMP280;62699;50.534;12.784;2023-05-02T04:34:55;96416.41;;;7.96
73894;BMP280;62699;50.534;12.784;2023-05-02T04:39:56;96418.78;;;8.14
73894;BMP280;62699;50.534;12.784;2023-05-02T04:44:56;96423.69;;;8.16
73894;BMP280;62699;50.534;12.784;2023-05-02T04:49:56;96443.28;;;8.48
73894;BMP280;62699;50.534;12.784;2023-05-02T04:54:57;96442.34;;;8.82
73894;BMP280;62699;50.534;12.784;2023-05-02T04:59:58;96443.41;;;9.27
73894;BMP280;62699;50.534;12.784;2023-05-02T05:05:00;96451.94;;;9.68
73894;BMP280;62699;50.534;12.784;2023-05-02T05:10:01;96468.50;;;10.20
73894;BMP280;62699;50.534;12.784;2023-05-02T05:15:02;96471.28;;;10.81
73894;BMP280;62699;50.534;12.784;2023-05-02T05:20:03;96483.00;;;11.23
73894;BMP280;62699;50.534;12.784;2023-05-02T05:25:04;96491.56;;;11.32
73894;BMP280;62699;50.534;12.784;2023-05-02T05:30:06;96487.78;;;11.80
73894;BMP280;62699;50.534;12.784;2023-05-02T05:35:08;96496.38;;;11.78
73894;BMP280;62699;50.534;12.784;2023-05-02T05:40:09;96495.66;;;11.72
73894;BMP280;62699;50.534;12.784;2023-05-02T05:45:09;96502.59;;;12.14
73894;BMP280;62699;50.534;12.784;2023-05-02T05:50:11;96510.31;;;11.82
73894;BMP280;62699;50.534;12.784;2023-05-02T05:55:11;96505.00;;;12.64
73894;BMP280;62699;50.534;12.784;2023-05-02T06:00:12;96512.78;;;12.73
73894;BMP280;62699;50.534;12.784;2023-05-02T06:05:13;96531.75;;;12.62
73894;BMP280;62699;50.534;12.784;2023-05-02T06:10:13;96537.34;;;12.34
73894;BMP280;62699;50.534;12.784;2023-05-02T06:15:14;96544.91;;;12.42
73894;BMP280;62699;50.534;12.784;2023-05-02T06:20:15;96539.09;;;12.67
73894;BMP280;62699;50.534;12.784;2023-05-02T06:25:15;96558.44;;;12.30
73894;BMP280;62699;50.534;12.784;2023-05-02T06:30:16;96561.59;;;12.40
73894;BMP280;62699;50.534;12.784;2023-05-02T06:35:16;96562.91;;;12.22
73894;BMP280;62699;50.534;12.784;2023-05-02T06:40:16;96561.06;;;12.47
73894;BMP280;62699;50.534;12.784;2023-05-02T06:45:16;96566.91;;;12.51
73894;BMP280;62699;50.534;12.784;2023-05-02T06:50:17;96571.31;;;12.95
73894;BMP280;62699;50.534;12.784;2023-05-02T06:55:17;96586.09;;;13.24
73894;BMP280;62699;50.534;12.784;2023-05-02T07:00:18;96588.91;;;13.37
73894;BMP280;62699;50.534;12.784;2023-05-02T07:05:19;96597.53;;;13.41
73894;BMP280;62699;50.534;12.784;2023-05-02T07:10:19;96610.16;;;12.98
73894;BMP280;62699;50.534;12.784;2023-05-02T07:15:19;96618.41;;;13.11
73894;BMP280;62699;50.534;12.784;2023-05-02T07:20:20;96618.91;;;13.09
73894;BMP280;62699;50.534;12.784;2023-05-02T07:25:20;96620.66;;;12.60
73894;BMP280;62699;50.534;12.784;2023-05-02T07:30:20;96625.41;;;12.43
73894;BMP280;62699;50.534;12.784;2023-05-02T07:35:24;96635.41;;;12.54
73894;BMP280;62699;50.534;12.784;2023-05-02T07:40:24;96636.22;;;12.43
73894;BMP280;62699;50.534;12.784;2023-05-02T07:45:24;96653.91;;;12.85
73894;BMP280;62699;50.534;12.784;2023-05-02T07:50:27;96653.22;;;13.20
73894;BMP280;62699;50.534;12.784;2023-05-02T07:55:27;96668.22;;;14.85
73894;BMP280;62699;50.534;12.784;2023-05-02T08:00:28;96676.69;;;15.32
73894;BMP280;62699;50.534;12.784;2023-05-02T08:05:29;96687.84;;;15.10
73894;BMP280;62699;50.534;12.784;2023-05-02T08:10:29;96686.75;;;13.71
73894;BMP280;62699;50.534;12.784;2023-05-02T08:15:31;96702.34;;;13.59
73894;BMP280;62699;50.534;12.784;2023-05-02T08:20:31;96700.41;;;13.19
73894;BMP280;62699;50.534;12.784;2023-05-02T08:25:31;96710.66;;;12.91
73894;BMP280;62699;50.534;12.784;2023-05-02T08:30:32;96713.63;;;12.87
73894;BMP280;62699;50.534;12.784;2023-05-02T08:35:32;96723.94;;;12.89
73894;BMP280;62699;50.534;12.784;2023-05-02T08:40:37;96720.78;;;12.79
73894;BMP280;62699;50.534;12.784;2023-05-02T08:45:39;96726.50;;;12.53
73894;BMP280;62699;50.534;12.784;2023-05-02T08:50:42;96736.34;;;12.56
73894;BMP280;62699;50.534;12.784;2023-05-02T08:55:44;96737.63;;;13.02
73894;BMP280;62699;50.534;12.784;2023-05-02T09:00:47;96726.53;;;13.46
73894;BMP280;62699;50.534;12.784;2023-05-02T09:05:53;96741.06;;;13.49
73894;BMP280;62699;50.534;12.784;2023-05-02T09:10:55;96742.66;;;13.22
73894;BMP280;62699;50.534;12.784;2023-05-02T09:16:20;96747.19;;;13.49
73894;BMP280;62699;50.534;12.784;2023-05-02T09:21:24;96761.53;;;12.86
73894;BMP280;62699;50.534;12.784;2023-05-02T09:26:28;96770.44;;;12.65
73894;BMP280;62699;50.534;12.784;2023-05-02T09:31:33;96776.38;;;12.47
73894;BMP280;62699;50.534;12.784;2023-05-02T09:36:42;96783.06;;;12.07
73894;BMP280;62699;50.534;12.784;2023-05-02T09:41:44;96777.38;;;12.32
73894;BMP280;62699;50.534;12.784;2023-05-02T09:46:48;96773.72;;;12.19
73894;BMP280;62699;50.534;12.784;2023-05-02T09:51:48;96786.41;;;12.52
73894;BMP280;62699;50.534;12.784;2023-05-02T09:56:53;96793.56;;;12.10
73894;BMP280;62699;50.534;12.784;2023-05-02T10:01:56;96791.88;;;12.02
73894;BMP280;62699;50.534;12.784;2023-05-02T10:06:59;96810.78;;;12.02
73894;BMP280;62699;50.534;12.784;2023-05-02T10:12:02;96801.47;;;12.08
73894;BMP280;62699;50.534;12.784;2023-05-02T10:17:11;96811.25;;;12.06
73894;BMP280;62699;50.534;12.784;2023-05-02T10:22:12;96820.56;;;12.38
73894;BMP280;62699;50.534;12.784;2023-05-02T10:27:13;96816.91;;;12.19
73894;BMP280;62699;50.534;12.784;2023-05-02T10:32:16;96826.88;;;12.85
73894;BMP280;62699;50.534;12.784;2023-05-02T10:37:17;96819.78;;;12.76
73894;BMP280;62699;50.534;12.784;2023-05-02T10:42:18;96822.81;;;13.19
73894;BMP280;62699;50.534;12.784;2023-05-02T10:47:24;96812.50;;;13.64
73894;BMP280;62699;50.534;12.784;2023-05-02T10:52:29;96810.84;;;13.91
73894;BMP280;62699;50.534;12.784;2023-05-02T10:57:30;96814.38;;;13.80
73894;BMP280;62699;50.534;12.784;2023-05-02T11:07:35;96815.06;;;13.51
73894;BMP280;62699;50.534;12.784;2023-05-02T11:12:49;96820.13;;;13.66
73894;BMP280;62699;50.534;12.784;2023-05-02T11:33:56;96811.97;;;14.55
73894;BMP280;62699;50.534;12.784;2023-05-02T11:38:59;96820.84;;;15.23
73894;BMP280;62699;50.534;12.784;2023-05-02T11:44:03;96821.66;;;14.94
73894;BMP280;62699;50.534;12.784;2023-05-02T11:49:05;96823.09;;;15.19
73894;BMP280;62699;50.534;12.784;2023-05-02T11:54:07;96821.03;;;15.94
73894;BMP280;62699;50.534;12.784;2023-05-02T11:59:07;96818.88;;;16.19
73894;BMP280;62699;50.534;12.784;2023-05-02T12:04:07;96817.75;;;15.96
73894;BMP280;62699;50.534;12.784;2023-05-02T12:09:09;96813.00;;;15.70
73894;BMP280;62699;50.534;12.784;2023-05-02T12:14:10;96814.66;;;15.41
73894;BMP280;62699;50.534;12.784;2023-05-02T12:19:11;96813.47;;;14.99
73894;BMP280;62699;50.534;12.784;2023-05-02T12:24:13;96819.41;;;15.35
73894;BMP280;62699;50.534;12.784;2023-05-02T12:29:15;96814.81;;;15.30
73894;BMP280;62699;50.534;12.784;2023-05-02T12:34:31;96815.88;;;15.59
73894;BMP280;62699;50.534;12.784;2023-05-02T12:39:41;96821.81;;;15.57
73894;BMP280;62699;50.534;12.784;2023-05-02T12:44:43;96828.97;;;15.42
73894;BMP280;62699;50.534;12.784;2023-05-02T12:49:54;96836.91;;;15.40
73894;BMP280;62699;50.534;12.784;2023-05-02T12:55:22;96832.22;;;14.97
73894;BMP280;62699;50.534;12.784;2023-05-02T13:00:24;96827.47;;;16.23
73894;BMP280;62699;50.534;12.784;2023-05-02T13:05:24;96818.25;;;16.26
73894;BMP280;62699;50.534;12.784;2023-05-02T13:10:25;96815.25;;;16.56
73894;BMP280;62699;50.534;12.784;2023-05-02T13:15:26;96828.94;;;16.63
73894;BMP280;62699;50.534;12.784;2023-05-02T13:20:27;96825.72;;;15.24
73894;BMP280;62699;50.534;12.784;2023-05-02T13:25:27;96823.22;;;15.45
73894;BMP280;62699;50.534;12.784;2023-05-02T13:30:27;96827.56;;;15.86
73894;BMP280;62699;50.534;12.784;2023-05-02T13:35:27;96820.53;;;15.26
73894;BMP280;62699;50.534;12.784;2023-05-02T13:40:28;96819.59;;;15.74
73894;BMP280;62699;50.534;12.784;2023-05-02T13:45:28;96812.97;;;15.89
73894;BMP280;62699;50.534;12.784;2023-05-02T13:50:28;96822.50;;;16.08
73894;BMP280;62699;50.534;12.784;2023-05-02T13:55:28;96816.16;;;16.19
73894;BMP280;62699;50.534;12.784;2023-05-02T14:00:29;96821.31;;;15.91
73894;BMP280;62699;50.534;12.784;2023-05-02T14:05:29;96821.91;;;15.52
73894;BMP280;62699;50.534;12.784;2023-05-02T14:10:29;96829.00;;;15.73
73894;BMP280;62699;50.534;12.784;2023-05-02T14:15:29;96829.47;;;15.91
73894;BMP280;62699;50.534;12.784;2023-05-02T14:20:30;96831.91;;;15.94
73894;BMP280;62699;50.534;12.784;2023-05-02T14:25:30;96828.88;;;15.47
73894;BMP280;62699;50.534;12.784;2023-05-02T14:30:31;96824.75;;;15.59
73894;BMP280;62699;50.534;12.784;2023-05-02T14:35:31;96828.38;;;15.81
73894;BMP280;62699;50.534;12.784;2023-05-02T14:40:31;96833.72;;;15.54
73894;BMP280;62699;50.534;12.784;2023-05-02T14:45:32;96867.91;;;14.83
73894;BMP280;62699;50.534;12.784;2023-05-02T14:50:32;96879.63;;;14.07
73894;BMP280;62699;50.534;12.784;2023-05-02T14:55:36;96890.19;;;13.75
73894;BMP280;62699;50.534;12.784;2023-05-02T15:00:38;96912.03;;;13.30
73894;BMP280;62699;50.534;12.784;2023-05-02T15:05:39;96918.50;;;13.11
73894;BMP280;62699;50.534;12.784;2023-05-02T15:10:39;96923.69;;;12.64
73894;BMP280;62699;50.534;12.784;2023-05-02T15:15:39;96924.44;;;12.59
73894;BMP280;62699;50.534;12.784;2023-05-02T15:20:40;96924.66;;;12.28
73894;BMP280;62699;50.534;12.784;2023-05-02T15:25:41;96943.28;;;12.09
73894;BMP280;62699;50.534;12.784;2023-05-02T15:30:41;96945.13;;;11.75
73894;BMP280;62699;50.534;12.784;2023-05-02T15:35:51;96951.16;;;11.48
73894;BMP280;62699;50.534;12.784;2023-05-02T15:40:55;96960.69;;;11.43
73894;BMP280;62699;50.534;12.784;2023-05-02T15:45:58;96963.50;;;11.29
73894;BMP280;62699;50.534;12.784;2023-05-02T15:50:59;96970.97;;;11.08
73894;BMP280;62699;50.534;12.784;2023-05-02T15:55:59;96974.59;;;10.99
73894;BMP280;62699;50.534;12.784;2023-05-02T16:00:59;96973.31;;;10.89
73894;BMP280;62699;50.534;12.784;2023-05-02T16:06:00;96973.47;;;10.80
73894;BMP280;62699;50.534;12.784;2023-05-02T16:11:00;96993.13;;;10.86
73894;BMP280;62699;50.534;12.784;2023-05-02T16:16:01;96998.97;;;10.85
73894;BMP280;62699;50.534;12.784;2023-05-02T16:21:02;96998.78;;;10.63
73894;BMP280;62699;50.534;12.784;2023-05-02T16:26:02;97002.66;;;10.56
73894;BMP280;62699;50.534;12.784;2023-05-02T16:31:07;97002.06;;;10.46
73894;BMP280;62699;50.534;12.784;2023-05-02T16:36:09;97015.56;;;10.52
73894;BMP280;62699;50.534;12.784;2023-05-02T16:41:10;97026.31;;;10.52
73894;BMP280;62699;50.534;12.784;2023-05-02T16:46:12;97024.81;;;10.45
73894;BMP280;62699;50.534;12.784;2023-05-02T16:51:13;97025.69;;;10.37
73894;BMP280;62699;50.534;12.784;2023-05-02T16:56:14;97027.63;;;10.57
73894;BMP280;62699;50.534;12.784;2023-05-02T17:01:14;97025.84;;;10.53
73894;BMP280;62699;50.534;12.784;2023-05-02T17:06:16;97042.38;;;10.41
73894;BMP280;62699;50.534;12.784;2023-05-02T17:11:16;97047.59;;;10.50
73894;BMP280;62699;50.534;12.784;2023-05-02T17:16:18;97046.06;;;10.43
73894;BMP280;62699;50.534;12.784;2023-05-02T17:21:21;97045.94;;;10.58
73894;BMP280;62699;50.534;12.784;2023-05-02T17:26:22;97048.66;;;10.58
73894;BMP280;62699;50.534;12.784;2023-05-02T17:31:22;97052.59;;;10.57
73894;BMP280;62699;50.534;12.784;2023-05-02T17:36:23;97044.00;;;10.58
73894;BMP280;62699;50.534;12.784;2023-05-02T17:41:23;97055.28;;;10.57
73894;BMP280;62699;50.534;12.784;2023-05-02T17:46:25;97064.03;;;10.52
73894;BMP280;62699;50.534;12.784;2023-05-02T17:51:25;97064.22;;;10.48
73894;BMP280;62699;50.534;12.784;2023-05-02T17:56:26;97065.97;;;10.51
73894;BMP280;62699;50.534;12.784;2023-05-02T18:01:27;97075.00;;;10.48
73894;BMP280;62699;50.534;12.784;2023-05-02T18:06:27;97089.22;;;10.49
73894;BMP280;62699;50.534;12.784;2023-05-02T18:11:27;97102.91;;;10.51
73894;BMP280;62699;50.534;12.784;2023-05-02T18:16:28;97104.00;;;10.39
73894;BMP280;62699;50.534;12.784;2023-05-02T18:21:28;97105.16;;;10.32
73894;BMP280;62699;50.534;12.784;2023-05-02T18:26:29;97101.16;;;10.28
73894;BMP280;62699;50.534;12.784;2023-05-02T18:31:30;97108.72;;;10.24
73894;BMP280;62699;50.534;12.784;2023-05-02T18:36:31;97117.72;;;10.21
73894;BMP280;62699;50.534;12.784;2023-05-02T18:41:31;97129.97;;;10.22
73894;BMP280;62699;50.534;12.784;2023-05-02T18:46:31;97122.31;;;10.15
73894;BMP280;62699;50.534;12.784;2023-05-02T18:51:32;97128.59;;;10.11
73894;BMP280;62699;50.534;12.784;2023-05-02T18:56:32;97130.28;;;10.09
73894;BMP280;62699;50.534;12.784;2023-05-02T19:01:33;97142.72;;;10.06
73894;BMP280;62699;50.534;12.784;2023-05-02T19:06:33;97144.41;;;10.04
73894;BMP280;62699;50.534;12.784;2023-05-02T19:11:34;97150.09;;;9.91
73894;BMP280;62699;50.534;12.784;2023-05-02T19:16:36;97152.41;;;9.84
73894;BMP280;62699;50.534;12.784;2023-05-02T19:21:38;97149.19;;;9.80
73894;BMP280;62699;50.534;12.784;2023-05-02T19:26:38;97156.50;;;9.79
73894;BMP280;62699;50.534;12.784;2023-05-02T19:31:39;97172.56;;;9.74
73894;BMP280;62699;50.534;12.784;2023-05-02T19:36:39;97180.41;;;9.77
73894;BMP280;62699;50.534;12.784;2023-05-02T19:41:39;97176.53;;;9.78
73894;BMP280;62699;50.534;12.784;2023-05-02T19:46:41;97175.25;;;9.74
73894;BMP280;62699;50.534;12.784;2023-05-02T19:51:41;97176.91;;;9.71
73894;BMP280;62699;50.534;12.784;2023-05-02T19:56:43;97183.59;;;9.61
73894;BMP280;62699;50.534;12.784;2023-05-02T20:01:45;97179.13;;;9.58
73894;BMP280;62699;50.534;12.784;2023-05-02T20:06:46;97178.13;;;9.55
73894;BMP280;62699;50.534;12.784;2023-05-02T20:11:46;97184.16;;;9.50
73894;BMP280;62699;50.534;12.784;2023-05-02T20:16:46;97183.09;;;9.48
73894;BMP280;62699;50.534;12.784;2023-05-02T20:21:47;97188.69;;;9.44
73894;BMP280;62699;50.534;12.784;2023-05-02T20:26:48;97199.47;;;9.44
73894;BMP280;62699;50.534;12.784;2023-05-02T20:31:48;97199.91;;;9.43
73894;BMP280;62699;50.534;12.784;2023-05-02T20:36:48;97199.91;;;9.43
73894;BMP280;62699;50.534;12.784;2023-05-02T20:41:48;97196.94;;;9.41
73894;BMP280;62699;50.534;12.784;2023-05-02T20:46:49;97198.50;;;9.33
73894;BMP280;62699;50.534;12.784;2023-05-02T20:51:50;97194.31;;;9.17
73894;BMP280;62699;50.534;12.784;2023-05-02T20:56:50;97198.94;;;9.16
73894;BMP280;62699;50.534;12.784;2023-05-02T21:01:51;97211.34;;;9.14
73894;BMP280;62699;50.534;12.784;2023-05-02T21:06:51;97216.75;;;9.05
73894;BMP280;62699;50.534;12.784;2023-05-02T21:11:52;97218.00;;;9.04
73894;BMP280;62699;50.534;12.784;2023-05-02T21:16:52;97218.50;;;8.93
73894;BMP280;62699;50.534;12.784;2023-05-02T21:21:52;97225.53;;;8.91
73894;BMP280;62699;50.534;12.784;2023-05-02T21:26:53;97222.16;;;8.81
73894;BMP280;62699;50.534;12.784;2023-05-02T21:31:53;97226.66;;;8.75
73894;BMP280;62699;50.534;12.784;2023-05-02T21:36:53;97223.69;;;8.73
73894;BMP280;62699;50.534;12.784;2023-05-02T21:41:53;97223.41;;;8.71
73894;BMP280;62699;50.534;12.784;2023-05-02T21:46:54;97227.13;;;8.73
73894;BMP280;62699;50.534;12.784;2023-05-02T21:51:54;97232.69;;;8.70
73894;BMP280;62699;50.534;12.784;2023-05-02T21:56:58;97233.13;;;8.68
73894;BMP280;62699;50.534;12.784;2023-05-02T22:01:58;97230.59;;;8.65
73894;BMP280;62699;50.534;12.784;2023-05-02T22:06:58;97241.38;;;8.56
73894;BMP280;62699;50.534;12.784;2023-05-02T22:11:58;97234.88;;;8.48
73894;BMP280;62699;50.534;12.784;2023-05-02T22:16:59;97250.66;;;8.46
73894;BMP280;62699;50.534;12.784;2023-05-02T22:22:01;97246.84;;;8.38
73894;BMP280;62699;50.534;12.784;2023-05-02T22:27:02;97246.53;;;8.35
73894;BMP280;62699;50.534;12.784;2023-05-02T22:32:03;97233.00;;;8.30
73894;BMP280;62699;50.534;12.784;2023-05-02T22:37:04;97235.06;;;8.35
73894;BMP280;62699;50.534;12.784;2023-05-02T22:42:05;97232.53;;;8.31
73894;BMP280;62699;50.534;12.784;2023-05-02T22:47:05;97244.19;;;8.19
73894;BMP280;62699;50.534;12.784;2023-05-02T22:52:07;97239.72;;;8.25
73894;BMP280;62699;50.534;12.784;2023-05-02T22:57:07;97248.84;;;8.19
73894;BMP280;62699;50.534;12.784;2023-05-02T23:02:09;97244.38;;;8.16
73894;BMP280;62699;50.534;12.784;2023-05-02T23:07:11;97241.28;;;8.08
73894;BMP280;62699;50.534;12.784;2023-05-02T23:12:11;97246.16;;;8.10
73894;BMP280;62699;50.534;12.784;2023-05-02T23:17:11;97252.59;;;8.03
73894;BMP280;62699;50.534;12.784;2023-05-02T23:22:13;97258.84;;;8.00
73894;BMP280;62699;50.534;12.784;2023-05-02T23:27:15;97252.00;;;7.99
73894;BMP280;62699;50.534;12.784;2023-05-02T23:32:15;97266.63;;;7.98
73894;BMP280;62699;50.534;12.784;2023-05-02T23:37:16;97257.84;;;7.88
73894;BMP280;62699;50.534;12.784;2023-05-02T23:42:16;97267.81;;;7.88
73894;BMP280;62699;50.534;12.784;2023-05-02T23:47:17;97268.72;;;7.85
73894;BMP280;62699;50.534;12.784;2023-05-02T23:52:17;97270.50;;;7.79
73894;BMP280;62699;50.534;12.784;2023-05-02T23:57:18;97269.94;;;7.75
